createdAt,value
2023-04-13T00:01:22.076Z,8.20
2023-04-13T00:03:49.543Z,8.20
2023-04-13T00:06:22.349Z,8.18
2023-04-13T00:08:50.303Z,8.10
2023-04-13T00:11:18.750Z,8.08
2023-04-13T00:13:47.922Z,8.10
2023-04-13T00:16:16.142Z,8.16
2023-04-13T00:18:44.547Z,8.14
2023-04-13T00:21:12.921Z,8.18
2023-04-13T00:23:40.265Z,8.10
2023-04-13T00:26:08.153Z,8.10
2023-04-13T00:28:38.623Z,8.10
2023-04-13T00:31:06.363Z,8.20
2023-04-13T00:33:34.085Z,8.20
2023-04-13T00:36:01.245Z,8.20
2023-04-13T00:38:30.398Z,8.20
2023-04-13T00:40:57.069Z,8.18
2023-04-13T00:43:25.923Z,8.10
2023-04-13T00:45:52.491Z,8.00
2023-04-13T00:48:21.222Z,7.90
2023-04-13T00:50:47.828Z,7.80
2023-04-13T00:53:16.330Z,7.78
2023-04-13T00:55:44.590Z,7.80
2023-04-13T00:58:12.875Z,7.90
2023-04-13T01:00:42.568Z,7.90
2023-04-13T01:03:11.007Z,7.90
2023-04-13T01:06:25.315Z,7.90
2023-04-13T01:09:15.056Z,7.90
2023-04-13T01:12:10.803Z,7.90
2023-04-13T01:14:47.094Z,7.80
2023-04-13T01:17:24.626Z,7.80
2023-04-13T01:20:13.676Z,7.80
2023-04-13T01:22:58.129Z,7.80
2023-04-13T01:25:57.864Z,7.80
2023-04-13T01:28:28.373Z,7.70
2023-04-13T01:30:59.605Z,7.70
2023-04-13T01:33:29.711Z,7.62
2023-04-13T01:36:01.818Z,7.60
2023-04-13T01:38:29.325Z,7.64
2023-04-13T01:40:59.182Z,7.66
2023-04-13T01:43:30.869Z,7.60
2023-04-13T01:46:06.279Z,7.66
2023-04-13T01:48:54.885Z,7.68
2023-04-13T01:51:28.813Z,7.70
2023-04-13T01:54:13.530Z,7.70
2023-04-13T01:56:43.130Z,7.78
2023-04-13T01:59:10.715Z,7.80
2023-04-13T02:01:40.519Z,7.70
2023-04-13T02:04:07.471Z,7.60
2023-04-13T02:06:36.533Z,7.60
2023-04-13T02:09:10.563Z,7.60
2023-04-13T02:11:40.066Z,7.60
2023-04-13T02:14:08.684Z,7.60
2023-04-13T02:16:35.158Z,7.60
2023-04-13T02:19:01.765Z,7.54
2023-04-13T02:21:28.541Z,7.56
2023-04-13T02:23:57.295Z,7.50
2023-04-13T02:26:25.502Z,7.50
2023-04-13T02:28:51.985Z,7.40
2023-04-13T02:31:23.125Z,7.50
2023-04-13T02:33:52.300Z,7.50
2023-04-13T02:36:24.627Z,7.50
2023-04-13T02:38:53.954Z,7.56
2023-04-13T02:41:23.374Z,7.60
2023-04-13T02:43:51.507Z,7.60
2023-04-13T02:46:19.318Z,7.60
2023-04-13T02:48:45.842Z,7.58
2023-04-13T02:51:12.521Z,7.50
2023-04-13T02:53:39.306Z,7.42
2023-04-13T02:56:07.071Z,7.40
2023-04-13T02:58:34.893Z,7.40
2023-04-13T03:01:01.876Z,7.50
2023-04-13T03:03:30.180Z,7.50
2023-04-13T03:05:56.917Z,7.50
2023-04-13T03:08:25.646Z,7.60
2023-04-13T03:10:54.198Z,7.60
2023-04-13T03:13:21.529Z,7.60
2023-04-13T03:15:48.951Z,7.60
2023-04-13T03:18:15.649Z,7.70
2023-04-13T03:20:43.544Z,7.70
2023-04-13T03:23:13.026Z,7.70
2023-04-13T03:25:39.763Z,7.70
2023-04-13T03:28:06.206Z,7.70
2023-04-13T03:30:33.823Z,7.70
2023-04-13T03:33:00.364Z,7.70
2023-04-13T03:35:29.555Z,7.66
2023-04-13T03:37:56.405Z,7.54
2023-04-13T03:40:24.226Z,7.46
2023-04-13T03:42:51.565Z,7.40
2023-04-13T03:45:18.520Z,7.40
2023-04-13T03:47:45.429Z,7.40
2023-04-13T03:50:13.384Z,7.40
2023-04-13T03:52:42.930Z,7.50
2023-04-13T03:55:13.940Z,7.50
2023-04-13T03:57:41.796Z,7.50
2023-04-13T04:00:13.325Z,7.42
2023-04-13T04:02:41.772Z,7.40
2023-04-13T04:05:09.756Z,7.40
2023-04-13T04:07:36.397Z,7.40
2023-04-13T04:10:03.362Z,7.40
2023-04-13T04:12:31.817Z,7.50
2023-04-13T04:15:00.382Z,7.50
2023-04-13T04:17:28.565Z,7.50
2023-04-13T04:19:55.331Z,7.50
2023-04-13T04:22:29.337Z,7.50
2023-04-13T04:25:00.535Z,7.50
2023-04-13T04:27:27.701Z,7.44
2023-04-13T04:29:58.531Z,7.50
2023-04-13T04:32:25.253Z,7.50
2023-04-13T04:34:56.041Z,7.50
2023-04-13T04:37:22.914Z,7.50
2023-04-13T04:39:49.532Z,7.50
2023-04-13T04:42:18.305Z,7.50
2023-04-13T04:44:49.400Z,7.50
2023-04-13T04:47:18.763Z,7.50
2023-04-13T04:49:45.403Z,7.50
2023-04-13T04:52:14.212Z,7.50
2023-04-13T04:54:41.978Z,7.40
2023-04-13T04:57:11.602Z,7.40
2023-04-13T04:59:40.151Z,7.40
2023-04-13T05:02:10.796Z,7.40
2023-04-13T05:04:39.653Z,7.40
2023-04-13T05:07:07.000Z,7.40
2023-04-13T05:09:38.280Z,7.40
2023-04-13T05:12:06.154Z,7.40
2023-04-13T05:14:33.972Z,7.40
2023-04-13T05:17:02.483Z,7.40
2023-04-13T05:19:29.956Z,7.40
2023-04-13T05:22:04.850Z,7.40
2023-04-13T05:24:32.980Z,7.42
2023-04-13T05:27:05.499Z,7.50
2023-04-13T05:29:34.783Z,7.40
2023-04-13T05:32:03.299Z,7.40
2023-04-13T05:34:33.233Z,7.30
2023-04-13T05:36:59.932Z,7.30
2023-04-13T05:39:26.949Z,7.30
2023-04-13T05:41:56.387Z,7.30
2023-04-13T05:44:22.853Z,7.30
2023-04-13T05:46:51.213Z,7.30
2023-04-13T05:49:18.966Z,7.30
2023-04-13T05:51:47.231Z,7.30
2023-04-13T05:54:16.872Z,7.30
2023-04-13T05:56:44.758Z,7.30
2023-04-13T05:59:15.789Z,7.40
2023-04-13T06:01:43.262Z,7.40
2023-04-13T06:04:13.692Z,7.40
2023-04-13T06:06:44.659Z,7.36
2023-04-13T06:09:11.286Z,7.30
2023-04-13T06:11:38.869Z,7.32
2023-04-13T06:14:05.527Z,7.40
2023-04-13T06:16:34.283Z,7.40
2023-04-13T06:19:01.320Z,7.50
2023-04-13T06:21:29.510Z,7.50
2023-04-13T06:24:00.493Z,7.60
2023-04-13T06:26:30.257Z,7.60
2023-04-13T06:28:59.053Z,7.68
2023-04-13T06:31:27.298Z,7.70
2023-04-13T06:33:54.870Z,7.70
2023-04-13T06:36:21.855Z,7.70
2023-04-13T06:38:48.934Z,7.70
2023-04-13T06:41:17.611Z,7.72
2023-04-13T06:43:45.760Z,7.70
2023-04-13T06:46:14.305Z,7.70
2023-04-13T06:48:42.389Z,7.70
2023-04-13T06:51:09.227Z,7.70
2023-04-13T06:53:35.877Z,7.70
2023-04-13T06:56:03.344Z,7.70
2023-04-13T06:58:30.849Z,7.70
2023-04-13T07:01:03.728Z,7.70
2023-04-13T07:03:31.413Z,7.72
2023-04-13T07:05:59.325Z,7.78
2023-04-13T07:08:26.531Z,7.80
2023-04-13T07:10:57.305Z,7.80
2023-04-13T07:13:26.432Z,7.80
2023-04-13T07:15:54.990Z,7.80
2023-04-13T07:18:23.971Z,7.80
2023-04-13T07:20:51.156Z,7.80
2023-04-13T07:23:19.325Z,7.80
2023-04-13T07:25:47.010Z,7.80
2023-04-13T07:28:16.108Z,7.78
2023-04-13T07:30:45.381Z,7.78
2023-04-13T07:33:15.563Z,7.80
2023-04-13T07:35:42.366Z,7.80
2023-04-13T07:38:11.839Z,7.80
2023-04-13T07:40:39.608Z,7.80
2023-04-13T07:43:09.069Z,7.80
2023-04-13T07:45:35.864Z,7.80
2023-04-13T07:48:05.169Z,7.80
2023-04-13T07:50:32.212Z,7.80
2023-04-13T07:53:00.501Z,7.74
2023-04-13T07:55:27.415Z,7.72
2023-04-13T07:57:55.010Z,7.74
2023-04-13T08:00:22.507Z,7.80
2023-04-13T08:02:49.263Z,7.80
2023-04-13T08:05:16.217Z,7.80
2023-04-13T08:07:47.680Z,7.80
2023-04-13T08:10:19.037Z,7.80
2023-04-13T08:12:46.014Z,7.80
2023-04-13T08:15:12.614Z,7.80
2023-04-13T08:17:39.877Z,7.90
2023-04-13T08:20:10.450Z,7.90
2023-04-13T08:22:38.672Z,7.90
2023-04-13T08:25:05.854Z,7.90
2023-04-13T08:27:32.347Z,7.90
2023-04-13T08:30:01.221Z,7.90
2023-04-13T08:32:30.163Z,7.90
2023-04-13T08:35:06.268Z,7.90
2023-04-13T08:37:36.355Z,7.90
2023-04-13T08:40:07.630Z,7.90
2023-04-13T08:42:34.387Z,7.90
2023-04-13T08:45:05.409Z,7.90
2023-04-13T08:47:32.429Z,7.90
2023-04-13T08:50:01.932Z,7.90
2023-04-13T08:52:31.388Z,7.90
2023-04-13T08:55:02.776Z,7.90
2023-04-13T08:57:30.924Z,7.90
2023-04-13T08:59:59.074Z,7.90
2023-04-13T09:02:36.144Z,7.90
2023-04-13T09:05:15.544Z,7.90
2023-04-13T09:07:53.560Z,7.90
2023-04-13T09:10:20.862Z,7.90
2023-04-13T09:12:47.867Z,7.90
2023-04-13T09:15:16.434Z,7.86
2023-04-13T09:17:45.795Z,7.90
2023-04-13T09:20:17.781Z,7.90
2023-04-13T09:22:44.421Z,7.90
2023-04-13T09:25:27.783Z,7.92
2023-04-13T09:27:56.401Z,7.98
2023-04-13T09:30:26.604Z,8.00
2023-04-13T09:33:07.148Z,7.96
2023-04-13T09:35:36.224Z,7.98
2023-04-13T09:38:04.938Z,8.00
2023-04-13T09:40:33.187Z,8.10
2023-04-13T09:43:08.873Z,8.10
2023-04-13T09:45:46.925Z,8.20
2023-04-13T09:48:22.926Z,8.22
2023-04-13T09:51:02.616Z,8.30
2023-04-13T09:53:46.554Z,8.30
2023-04-13T09:56:13.919Z,8.30
2023-04-13T09:58:52.614Z,8.40
2023-04-13T10:01:24.289Z,8.40
2023-04-13T10:03:51.177Z,8.50
2023-04-13T10:06:19.702Z,8.50
2023-04-13T10:08:47.222Z,8.50
2023-04-13T10:11:14.647Z,8.58
2023-04-13T10:13:54.594Z,8.60
2023-04-13T10:16:41.844Z,8.60
2023-04-13T10:19:16.226Z,8.60
2023-04-13T10:21:46.294Z,8.66
2023-04-13T10:24:14.127Z,8.70
2023-04-13T10:26:46.938Z,8.70
2023-04-13T10:29:28.422Z,8.80
2023-04-13T10:32:02.495Z,8.80
2023-04-13T10:34:33.744Z,8.80
2023-04-13T10:37:08.515Z,8.80
2023-04-13T10:39:37.066Z,8.80
2023-04-13T10:42:09.447Z,8.80
2023-04-13T10:44:52.542Z,8.80
2023-04-13T10:47:22.014Z,8.80
2023-04-13T10:49:51.872Z,8.80
2023-04-13T10:52:18.429Z,8.78
2023-04-13T10:54:45.725Z,8.70
2023-04-13T10:57:13.000Z,8.60
2023-04-13T10:59:56.204Z,8.60
2023-04-13T11:02:30.344Z,8.60
2023-04-13T11:05:00.353Z,8.52
2023-04-13T11:07:27.929Z,8.50
2023-04-13T11:12:29.373Z,8.50
2023-04-13T11:14:55.743Z,8.40
2023-04-13T11:17:22.584Z,8.40
2023-04-13T11:19:54.329Z,8.40
2023-04-13T11:22:24.334Z,8.30
2023-04-13T11:24:52.340Z,8.30
2023-04-13T11:27:28.371Z,8.30
2023-04-13T11:30:05.891Z,8.30
2023-04-13T11:32:36.423Z,8.30
2023-04-13T11:35:07.608Z,8.20
2023-04-13T11:37:46.524Z,8.20
2023-04-13T11:40:25.028Z,8.20
2023-04-13T11:42:56.052Z,8.20
2023-04-13T11:45:30.386Z,8.20
2023-04-13T11:47:59.341Z,8.20
2023-04-13T11:50:26.703Z,8.20
2023-04-13T11:52:56.881Z,8.30
2023-04-13T11:55:25.729Z,8.30
2023-04-13T11:57:53.528Z,8.30
2023-04-13T12:00:26.146Z,8.30
2023-04-13T12:03:02.657Z,8.30
2023-04-13T12:05:33.165Z,8.20
2023-04-13T12:08:04.604Z,8.20
2023-04-13T12:10:41.303Z,8.10
2023-04-13T12:16:05.133Z,8.20
2023-04-13T12:18:43.315Z,8.20
2023-04-13T12:21:20.419Z,8.14
2023-04-13T12:24:00.327Z,8.20
2023-04-13T12:29:06.602Z,8.20
2023-04-13T12:31:38.473Z,8.30
2023-04-13T12:34:07.585Z,8.30
2023-04-13T12:36:39.325Z,8.32
2023-04-13T12:39:08.830Z,8.40
2023-04-13T12:41:35.337Z,8.50
2023-04-13T12:44:05.699Z,8.50
2023-04-13T12:46:32.375Z,8.52
2023-04-13T12:48:59.074Z,8.60
2023-04-13T12:51:27.877Z,8.60
2023-04-13T12:53:58.633Z,8.54
2023-04-13T12:56:26.943Z,8.50
2023-04-13T12:58:53.943Z,8.50
2023-04-13T13:01:22.835Z,8.50
2023-04-13T13:03:54.258Z,8.50
2023-04-13T13:06:24.566Z,8.48
2023-04-13T13:08:52.852Z,8.40
2023-04-13T13:11:20.501Z,8.40
2023-04-13T13:13:54.828Z,8.30
2023-04-13T13:16:21.734Z,8.30
2023-04-13T13:18:51.459Z,8.28
2023-04-13T13:21:19.848Z,8.20
2023-04-13T13:23:46.516Z,8.20
2023-04-13T13:28:48.146Z,8.20
2023-04-13T13:31:15.756Z,8.20
2023-04-13T13:33:43.036Z,8.28
2023-04-13T13:36:13.270Z,8.30
2023-04-13T13:38:40.039Z,8.30
2023-04-13T13:41:14.048Z,8.40
2023-04-13T13:43:40.589Z,8.50
2023-04-13T13:46:10.496Z,8.50
2023-04-13T13:48:38.808Z,8.52
2023-04-13T13:51:46.122Z,8.54
2023-04-13T13:53:53.280Z,8.58
2023-04-13T13:56:21.536Z,8.60
2023-04-13T13:58:48.731Z,8.60
2023-04-13T14:01:17.735Z,8.60
2023-04-13T14:03:46.282Z,8.50
2023-04-13T14:06:13.360Z,8.40
2023-04-13T14:08:45.153Z,8.40
2023-04-13T14:11:12.958Z,8.40
2023-04-13T14:13:43.216Z,8.50
2023-04-13T14:16:10.665Z,8.50
2023-04-13T14:18:38.110Z,8.50
2023-04-13T14:21:07.808Z,8.46
2023-04-13T14:23:36.853Z,8.40
2023-04-13T14:26:04.112Z,8.40
2023-04-13T14:28:32.039Z,8.40
2023-04-13T14:30:59.861Z,8.50
2023-04-13T14:33:27.468Z,8.50
2023-04-13T14:35:54.219Z,8.60
2023-04-13T14:38:23.078Z,8.70
2023-04-13T14:40:50.135Z,8.74
2023-04-13T14:43:21.480Z,8.80
2023-04-13T14:45:53.920Z,8.70
2023-04-13T14:48:21.572Z,8.70
2023-04-13T14:50:49.341Z,8.70
2023-04-13T14:53:22.106Z,8.70
2023-04-13T14:55:51.412Z,8.70
2023-04-13T14:58:21.002Z,8.80
2023-04-13T15:00:47.540Z,8.90
2023-04-13T15:03:15.678Z,8.94
2023-04-13T15:05:52.919Z,9.00
2023-04-13T15:08:22.748Z,9.02
2023-04-13T15:10:49.470Z,9.10
2023-04-13T15:13:16.933Z,9.12
2023-04-13T15:15:47.448Z,9.20
2023-04-13T15:18:18.953Z,9.22
2023-04-13T15:20:46.495Z,9.28
2023-04-13T15:23:17.943Z,9.30
2023-04-13T15:25:46.695Z,9.20
2023-04-13T15:28:13.993Z,9.22
2023-04-13T15:30:42.990Z,9.20
2023-04-13T15:33:10.354Z,9.30
2023-04-13T15:35:38.469Z,9.28
2023-04-13T15:38:08.894Z,9.30
2023-04-13T15:40:37.728Z,9.30
2023-04-13T15:43:06.551Z,9.30
2023-04-13T15:45:36.946Z,9.40
2023-04-13T15:48:06.668Z,9.48
2023-04-13T15:50:33.942Z,9.60
2023-04-13T15:53:01.485Z,9.70
2023-04-13T15:55:34.435Z,9.70
2023-04-13T15:58:03.088Z,9.70
2023-04-13T16:00:32.622Z,9.70
2023-04-13T16:03:04.438Z,9.70
2023-04-13T16:05:41.030Z,9.70
2023-04-13T16:08:11.731Z,9.70
2023-04-13T16:10:38.198Z,9.80
2023-04-13T16:13:07.780Z,9.80
2023-04-13T16:15:36.359Z,9.90
2023-04-13T16:18:02.932Z,9.90
2023-04-13T16:20:29.884Z,9.90
2023-04-13T16:23:00.162Z,10.00
2023-04-13T16:25:31.013Z,10.00
2023-04-13T16:28:01.071Z,9.90
2023-04-13T16:30:27.538Z,9.80
2023-04-13T16:32:56.040Z,9.78
2023-04-13T16:35:22.798Z,9.70
2023-04-13T16:37:50.022Z,9.60
2023-04-13T16:40:16.679Z,9.60
2023-04-13T16:42:46.360Z,9.60
2023-04-13T16:45:15.262Z,9.60
2023-04-13T16:47:42.513Z,9.40
2023-04-13T16:50:12.153Z,9.30
2023-04-13T16:52:39.332Z,9.30
2023-04-13T16:55:07.285Z,9.32
2023-04-13T16:57:38.720Z,9.40
2023-04-13T17:00:08.831Z,9.40
2023-04-13T17:02:41.811Z,9.40
2023-04-13T17:05:11.705Z,9.40
2023-04-13T17:07:40.817Z,9.38
2023-04-13T17:10:09.512Z,9.40
2023-04-13T17:12:38.506Z,9.40
2023-04-13T17:15:07.154Z,9.40
2023-04-13T17:17:38.763Z,9.32
2023-04-13T17:20:09.643Z,9.30
2023-04-13T17:22:39.049Z,9.20
2023-04-13T17:25:09.337Z,9.10
2023-04-13T17:27:36.210Z,9.00
2023-04-13T17:30:05.014Z,8.90
2023-04-13T17:32:34.945Z,8.80
2023-04-13T17:35:02.940Z,8.80
2023-04-13T17:37:30.518Z,8.70
2023-04-13T17:39:57.346Z,8.54
2023-04-13T17:42:24.513Z,8.40
2023-04-13T17:44:52.068Z,8.30
2023-04-13T17:47:23.952Z,8.16
2023-04-13T17:49:53.513Z,8.10
2023-04-13T17:52:20.385Z,8.00
2023-04-13T17:54:47.826Z,8.08
2023-04-13T17:57:14.875Z,8.10
2023-04-13T17:59:41.655Z,8.20
2023-04-13T18:02:11.938Z,8.24
2023-04-13T18:04:39.648Z,8.20
2023-04-13T18:07:07.195Z,8.20
2023-04-13T18:09:34.206Z,8.30
2023-04-13T18:12:01.879Z,8.30
2023-04-13T18:14:30.511Z,8.40
2023-04-13T18:16:59.261Z,8.50
2023-04-13T18:19:26.682Z,8.50
2023-04-13T18:21:53.641Z,8.50
2023-04-13T18:24:21.336Z,8.60
2023-04-13T18:26:55.046Z,8.60
2023-04-13T18:29:22.218Z,8.60
2023-04-13T18:31:50.687Z,8.60
2023-04-13T18:34:20.744Z,8.62
2023-04-13T18:36:47.189Z,8.70
2023-04-13T18:39:16.602Z,8.70
2023-04-13T18:41:43.099Z,8.72
2023-04-13T18:44:09.526Z,8.80
2023-04-13T18:46:36.370Z,8.80
2023-04-13T18:49:03.589Z,8.80
2023-04-13T18:51:30.488Z,8.80
2023-04-13T18:54:00.175Z,8.90
2023-04-13T18:56:29.839Z,8.90
2023-04-13T18:58:56.354Z,9.00
2023-04-13T19:01:25.560Z,9.00
2023-04-13T19:03:52.980Z,9.00
2023-04-13T19:06:20.249Z,9.00
2023-04-13T19:08:46.768Z,9.10
2023-04-13T19:11:15.449Z,9.10
2023-04-13T19:13:43.551Z,9.10
2023-04-13T19:16:13.994Z,9.10
2023-04-13T19:18:40.547Z,9.10
2023-04-13T19:21:07.565Z,9.00
2023-04-13T19:23:34.657Z,9.00
2023-04-13T19:26:02.983Z,9.00
2023-04-13T19:28:30.436Z,8.98
2023-04-13T19:30:58.044Z,8.90
2023-04-13T19:33:24.537Z,8.82
2023-04-13T19:35:52.933Z,8.80
2023-04-13T19:38:19.869Z,8.80
2023-04-13T19:40:46.557Z,8.80
2023-04-13T19:43:19.855Z,8.80
2023-04-13T19:45:48.791Z,8.80
2023-04-13T19:48:16.019Z,8.80
2023-04-13T19:50:47.361Z,8.80
2023-04-13T19:53:14.171Z,8.80
2023-04-13T19:55:42.461Z,8.80
2023-04-13T19:58:12.044Z,8.70
2023-04-13T20:00:38.713Z,8.70
2023-04-13T20:03:06.211Z,8.70
2023-04-13T20:05:33.312Z,8.70
2023-04-13T20:08:00.354Z,8.70
2023-04-13T20:10:28.779Z,8.64
2023-04-13T20:12:57.298Z,8.60
2023-04-13T20:15:23.978Z,8.60
2023-04-13T20:17:51.982Z,8.50
2023-04-13T20:20:21.848Z,8.50
2023-04-13T20:22:50.625Z,8.40
2023-04-13T20:25:18.975Z,8.30
2023-04-13T20:27:49.827Z,8.20
2023-04-13T20:30:17.262Z,8.18
2023-04-13T20:32:45.093Z,8.10
2023-04-13T20:35:14.439Z,8.08
2023-04-13T20:37:41.580Z,8.00
2023-04-13T20:40:11.398Z,7.90
2023-04-13T20:42:41.480Z,7.90
2023-04-13T20:45:10.373Z,7.90
2023-04-13T20:47:36.940Z,7.90
2023-04-13T20:50:05.297Z,7.92
2023-04-13T20:52:32.260Z,7.90
2023-04-13T20:54:59.800Z,7.92
2023-04-13T20:57:26.903Z,8.00
2023-04-13T20:59:53.927Z,8.00
2023-04-13T21:02:21.191Z,8.00
2023-04-13T21:04:50.433Z,8.00
2023-04-13T21:07:17.477Z,8.00
2023-04-13T21:09:44.134Z,8.00
2023-04-13T21:12:13.630Z,8.00
2023-04-13T21:14:40.830Z,8.00
2023-04-13T21:17:08.736Z,7.90
2023-04-13T21:19:37.629Z,7.76
2023-04-13T21:22:07.826Z,7.60
2023-04-13T21:24:35.953Z,7.50
2023-04-13T21:27:02.424Z,7.50
2023-04-13T21:29:28.964Z,7.50
2023-04-13T21:31:56.470Z,7.50
2023-04-13T21:34:26.440Z,7.50
2023-04-13T21:36:54.553Z,7.50
2023-04-13T21:39:21.826Z,7.46
2023-04-13T21:41:48.271Z,7.42
2023-04-13T21:44:28.779Z,7.46
2023-04-13T21:46:57.819Z,7.50
2023-04-13T21:49:24.835Z,7.50
2023-04-13T21:51:52.916Z,7.50
2023-04-13T21:54:19.611Z,7.40
2023-04-13T21:56:50.751Z,7.40
2023-04-13T21:59:17.424Z,7.30
2023-04-13T22:01:46.131Z,7.20
2023-04-13T22:04:15.065Z,7.20
2023-04-13T22:06:42.598Z,7.20
2023-04-13T22:09:09.059Z,7.20
2023-04-13T22:11:35.844Z,7.20
2023-04-13T22:14:03.357Z,7.18
2023-04-13T22:16:30.637Z,7.10
2023-04-13T22:18:58.649Z,7.10
2023-04-13T22:21:26.155Z,7.00
2023-04-13T22:23:52.583Z,6.90
2023-04-13T22:26:19.449Z,6.90
2023-04-13T22:28:46.988Z,6.90
2023-04-13T22:31:13.540Z,6.90
2023-04-13T22:33:40.309Z,6.90
2023-04-13T22:36:20.530Z,6.90
2023-04-13T22:38:49.111Z,7.00
2023-04-13T22:41:16.993Z,7.00
2023-04-13T22:43:44.369Z,7.00
2023-04-13T22:46:10.935Z,7.10
2023-04-13T22:48:39.975Z,7.10
2023-04-13T22:51:07.980Z,7.00
2023-04-13T22:53:37.389Z,7.00
2023-04-13T22:56:04.933Z,6.92
2023-04-13T22:58:31.433Z,6.90
2023-04-13T23:00:59.794Z,6.90
2023-04-13T23:03:26.798Z,6.80
2023-04-13T23:05:53.484Z,6.80
2023-04-13T23:08:20.347Z,6.80
2023-04-13T23:10:49.749Z,6.70
2023-04-13T23:13:18.587Z,6.70
2023-04-13T23:15:46.215Z,6.70
2023-04-13T23:18:12.764Z,6.78
2023-04-13T23:20:39.332Z,6.70
2023-04-13T23:23:07.902Z,6.80
2023-04-13T23:25:34.519Z,6.80
2023-04-13T23:28:02.230Z,6.90
2023-04-13T23:30:28.800Z,6.98
2023-04-13T23:32:55.190Z,7.00
2023-04-13T23:35:21.868Z,7.00
2023-04-13T23:37:48.729Z,6.96
2023-04-13T23:40:15.727Z,6.78
2023-04-13T23:42:42.433Z,6.60
2023-04-13T23:45:10.786Z,6.50
2023-04-13T23:47:37.293Z,6.36
2023-04-13T23:50:04.558Z,6.30
2023-04-13T23:52:31.167Z,6.20
2023-04-13T23:54:58.985Z,6.14
2023-04-13T23:57:25.511Z,6.10
2023-04-13T23:59:56.861Z,6.20
